sensor_id;sensor_type;location;lat;lon;timestamp;temperature;humidity
64843;DHT22;51310;52.198;5.422;2022-07-23T00:00:21;15.20;99.90
64843;DHT22;51310;52.198;5.422;2022-07-23T00:02:47;15.10;99.90
64843;DHT22;51310;52.198;5.422;2022-07-23T00:05:13;15.20;99.90
64843;DHT22;51310;52.198;5.422;2022-07-23T00:07:39;17.60;99.90
64843;DHT22;51310;52.198;5.422;2022-07-23T00:10:05;15.30;99.90
64843;DHT22;51310;52.198;5.422;2022-07-23T00:12:32;15.20;99.90
64843;DHT22;51310;52.198;5.422;2022-07-23T00:14:58;15.10;99.90
64843;DHT22;51310;52.198;5.422;2022-07-23T00:17:25;15.10;99.90
64843;DHT22;51310;52.198;5.422;2022-07-23T00:19:50;15.10;99.90
64843;DHT22;51310;52.198;5.422;2022-07-23T00:22:16;17.00;99.90
64843;DHT22;51310;52.198;5.422;2022-07-23T00:24:42;15.00;99.90
64843;DHT22;51310;52.198;5.422;2022-07-23T00:27:08;15.00;99.90
64843;DHT22;51310;52.198;5.422;2022-07-23T00:29:34;14.90;99.90
64843;DHT22;51310;52.198;5.422;2022-07-23T00:32:00;14.90;99.90
64843;DHT22;51310;52.198;5.422;2022-07-23T00:34:26;18.70;99.90
64843;DHT22;51310;52.198;5.422;2022-07-23T00:36:51;15.00;99.90
64843;DHT22;51310;52.198;5.422;2022-07-23T00:39:19;15.10;99.90
64843;DHT22;51310;52.198;5.422;2022-07-23T00:41:49;15.00;99.90
64843;DHT22;51310;52.198;5.422;2022-07-23T00:44:20;14.90;99.90
64843;DHT22;51310;52.198;5.422;2022-07-23T00:46:55;15.00;99.90
64843;DHT22;51310;52.198;5.422;2022-07-23T00:49:24;14.90;99.90
64843;DHT22;51310;52.198;5.422;2022-07-23T00:51:54;14.80;99.90
64843;DHT22;51310;52.198;5.422;2022-07-23T00:54:23;14.90;99.90
64843;DHT22;51310;52.198;5.422;2022-07-23T00:56:51;14.90;99.90
64843;DHT22;51310;52.198;5.422;2022-07-23T00:59:18;14.90;99.90
64843;DHT22;51310;52.198;5.422;2022-07-23T01:01:44;14.70;99.90
64843;DHT22;51310;52.198;5.422;2022-07-23T01:04:12;14.80;99.90
64843;DHT22;51310;52.198;5.422;2022-07-23T01:06:38;14.90;99.90
64843;DHT22;51310;52.198;5.422;2022-07-23T01:09:05;14.80;99.90
64843;DHT22;51310;52.198;5.422;2022-07-23T01:11:34;14.70;99.90
64843;DHT22;51310;52.198;5.422;2022-07-23T01:14:13;14.70;99.90
64843;DHT22;51310;52.198;5.422;2022-07-23T01:16:43;14.70;99.90
64843;DHT22;51310;52.198;5.422;2022-07-23T01:19:12;14.80;99.90
64843;DHT22;51310;52.198;5.422;2022-07-23T01:21:41;14.70;99.90
64843;DHT22;51310;52.198;5.422;2022-07-23T01:24:10;14.70;99.90
64843;DHT22;51310;52.198;5.422;2022-07-23T01:26:39;14.70;99.90
64843;DHT22;51310;52.198;5.422;2022-07-23T01:29:08;14.50;99.90
64843;DHT22;51310;52.198;5.422;2022-07-23T01:31:33;14.90;99.90
64843;DHT22;51310;52.198;5.422;2022-07-23T01:33:59;14.60;99.90
64843;DHT22;51310;52.198;5.422;2022-07-23T01:36:25;14.60;99.90
64843;DHT22;51310;52.198;5.422;2022-07-23T01:38:52;15.30;99.90
64843;DHT22;51310;52.198;5.422;2022-07-23T01:41:19;14.50;99.90
64843;DHT22;51310;52.198;5.422;2022-07-23T01:43:45;15.30;99.90
64843;DHT22;51310;52.198;5.422;2022-07-23T01:46:11;15.60;99.90
64843;DHT22;51310;52.198;5.422;2022-07-23T01:48:38;14.40;99.90
64843;DHT22;51310;52.198;5.422;2022-07-23T01:51:04;16.20;99.90
64843;DHT22;51310;52.198;5.422;2022-07-23T01:53:30;14.40;99.90
64843;DHT22;51310;52.198;5.422;2022-07-23T01:55:57;14.40;99.90
64843;DHT22;51310;52.198;5.422;2022-07-23T01:58:24;16.10;99.90
64843;DHT22;51310;52.198;5.422;2022-07-23T02:00:52;15.20;99.90
64843;DHT22;51310;52.198;5.422;2022-07-23T02:03:18;14.20;99.90
64843;DHT22;51310;52.198;5.422;2022-07-23T02:05:45;14.20;99.90
64843;DHT22;51310;52.198;5.422;2022-07-23T02:08:11;14.20;99.90
64843;DHT22;51310;52.198;5.422;2022-07-23T02:10:37;14.10;99.90
64843;DHT22;51310;52.198;5.422;2022-07-23T02:13:03;14.20;99.90
64843;DHT22;51310;52.198;5.422;2022-07-23T02:15:29;16.00;99.90
64843;DHT22;51310;52.198;5.422;2022-07-23T02:17:55;14.10;99.90
64843;DHT22;51310;52.198;5.422;2022-07-23T02:20:21;14.10;99.90
64843;DHT22;51310;52.198;5.422;2022-07-23T02:22:48;14.10;99.90
64843;DHT22;51310;52.198;5.422;2022-07-23T02:25:14;14.10;99.90
64843;DHT22;51310;52.198;5.422;2022-07-23T02:27:40;14.10;99.90
64843;DHT22;51310;52.198;5.422;2022-07-23T02:30:06;14.10;99.90
64843;DHT22;51310;52.198;5.422;2022-07-23T02:32:33;14.20;99.90
64843;DHT22;51310;52.198;5.422;2022-07-23T02:34:59;14.20;99.90
64843;DHT22;51310;52.198;5.422;2022-07-23T02:37:25;14.30;99.90
64843;DHT22;51310;52.198;5.422;2022-07-23T02:39:51;14.20;99.90
64843;DHT22;51310;52.198;5.422;2022-07-23T02:42:17;14.10;99.90
64843;DHT22;51310;52.198;5.422;2022-07-23T02:44:44;16.20;99.90
64843;DHT22;51310;52.198;5.422;2022-07-23T02:47:10;14.00;99.90
64843;DHT22;51310;52.198;5.422;2022-07-23T02:49:36;13.90;99.90
64843;DHT22;51310;52.198;5.422;2022-07-23T02:52:02;13.90;99.90
64843;DHT22;51310;52.198;5.422;2022-07-23T02:54:28;14.10;99.90
64843;DHT22;51310;52.198;5.422;2022-07-23T02:56:54;14.20;99.90
64843;DHT22;51310;52.198;5.422;2022-07-23T02:59:20;14.10;99.90
64843;DHT22;51310;52.198;5.422;2022-07-23T03:01:46;14.00;99.90
64843;DHT22;51310;52.198;5.422;2022-07-23T03:04:12;13.90;99.90
64843;DHT22;51310;52.198;5.422;2022-07-23T03:06:38;13.90;99.90
64843;DHT22;51310;52.198;5.422;2022-07-23T03:09:04;13.80;99.90
64843;DHT22;51310;52.198;5.422;2022-07-23T03:11:31;14.00;99.90
64843;DHT22;51310;52.198;5.422;2022-07-23T03:13:57;14.30;99.90
64843;DHT22;51310;52.198;5.422;2022-07-23T03:16:23;15.70;99.90
64843;DHT22;51310;52.198;5.422;2022-07-23T03:18:48;14.30;99.90
64843;DHT22;51310;52.198;5.422;2022-07-23T03:21:14;14.10;99.90
64843;DHT22;51310;52.198;5.422;2022-07-23T03:23:40;13.90;99.90
64843;DHT22;51310;52.198;5.422;2022-07-23T03:26:06;13.80;99.90
64843;DHT22;51310;52.198;5.422;2022-07-23T03:28:32;13.70;99.90
64843;DHT22;51310;52.198;5.422;2022-07-23T03:30:58;15.80;99.90
64843;DHT22;51310;52.198;5.422;2022-07-23T03:33:24;13.60;99.90
64843;DHT22;51310;52.198;5.422;2022-07-23T03:35:50;13.80;99.90
64843;DHT22;51310;52.198;5.422;2022-07-23T03:38:16;13.50;99.90
64843;DHT22;51310;52.198;5.422;2022-07-23T03:40:42;14.40;99.90
64843;DHT22;51310;52.198;5.422;2022-07-23T03:43:08;13.50;99.90
64843;DHT22;51310;52.198;5.422;2022-07-23T03:45:34;13.60;99.90
64843;DHT22;51310;52.198;5.422;2022-07-23T03:48:00;15.80;99.90
64843;DHT22;51310;52.198;5.422;2022-07-23T03:50:26;13.70;99.90
64843;DHT22;51310;52.198;5.422;2022-07-23T03:52:52;13.60;99.90
64843;DHT22;51310;52.198;5.422;2022-07-23T03:55:18;13.70;99.90
64843;DHT22;51310;52.198;5.422;2022-07-23T03:57:43;13.70;99.90
64843;DHT22;51310;52.198;5.422;2022-07-23T04:00:10;13.60;99.90
64843;DHT22;51310;52.198;5.422;2022-07-23T04:02:38;13.50;99.90
64843;DHT22;51310;52.198;5.422;2022-07-23T04:05:05;13.50;99.90
64843;DHT22;51310;52.198;5.422;2022-07-23T04:07:32;13.50;99.90
64843;DHT22;51310;52.198;5.422;2022-07-23T04:09:58;13.40;99.90
64843;DHT22;51310;52.198;5.422;2022-07-23T04:12:24;13.30;99.90
64843;DHT22;51310;52.198;5.422;2022-07-23T04:14:50;13.40;99.90
64843;DHT22;51310;52.198;5.422;2022-07-23T04:17:16;13.50;99.90
64843;DHT22;51310;52.198;5.422;2022-07-23T04:19:42;13.50;99.90
64843;DHT22;51310;52.198;5.422;2022-07-23T04:22:12;13.50;99.90
64843;DHT22;51310;52.198;5.422;2022-07-23T04:24:38;13.60;99.90
64843;DHT22;51310;52.198;5.422;2022-07-23T04:27:04;13.60;99.90
64843;DHT22;51310;52.198;5.422;2022-07-23T04:29:31;13.60;99.90
64843;DHT22;51310;52.198;5.422;2022-07-23T04:31:57;13.70;99.90
64843;DHT22;51310;52.198;5.422;2022-07-23T04:34:23;15.10;99.90
64843;DHT22;51310;52.198;5.422;2022-07-23T04:36:51;13.70;99.90
64843;DHT22;51310;52.198;5.422;2022-07-23T04:39:16;13.70;99.90
64843;DHT22;51310;52.198;5.422;2022-07-23T04:41:42;13.80;99.90
64843;DHT22;51310;52.198;5.422;2022-07-23T04:44:08;13.80;99.90
64843;DHT22;51310;52.198;5.422;2022-07-23T04:46:34;13.90;99.90
64843;DHT22;51310;52.198;5.422;2022-07-23T04:49:00;13.90;99.90
64843;DHT22;51310;52.198;5.422;2022-07-23T04:51:26;14.00;99.90
64843;DHT22;51310;52.198;5.422;2022-07-23T04:53:51;14.20;99.90
64843;DHT22;51310;52.198;5.422;2022-07-23T04:56:17;14.50;99.90
64843;DHT22;51310;52.198;5.422;2022-07-23T04:58:43;16.40;99.90
64843;DHT22;51310;52.198;5.422;2022-07-23T05:01:09;14.70;99.90
64843;DHT22;51310;52.198;5.422;2022-07-23T05:03:35;15.00;99.90
64843;DHT22;51310;52.198;5.422;2022-07-23T05:06:01;15.00;99.90
64843;DHT22;51310;52.198;5.422;2022-07-23T05:08:28;17.30;99.90
64843;DHT22;51310;52.198;5.422;2022-07-23T05:10:54;15.30;99.90
64843;DHT22;51310;52.198;5.422;2022-07-23T05:13:20;15.50;99.90
64843;DHT22;51310;52.198;5.422;2022-07-23T05:15:46;18.00;99.90
64843;DHT22;51310;52.198;5.422;2022-07-23T05:18:12;16.50;99.90
64843;DHT22;51310;52.198;5.422;2022-07-23T05:20:38;16.80;99.90
64843;DHT22;51310;52.198;5.422;2022-07-23T05:23:04;17.10;99.90
64843;DHT22;51310;52.198;5.422;2022-07-23T05:25:30;17.20;99.90
64843;DHT22;51310;52.198;5.422;2022-07-23T05:27:56;17.10;99.90
64843;DHT22;51310;52.198;5.422;2022-07-23T05:30:22;17.40;99.90
64843;DHT22;51310;52.198;5.422;2022-07-23T05:32:48;17.50;99.90
64843;DHT22;51310;52.198;5.422;2022-07-23T05:35:14;18.90;98.50
64843;DHT22;51310;52.198;5.422;2022-07-23T05:37:40;17.80;97.50
64843;DHT22;51310;52.198;5.422;2022-07-23T05:40:08;17.80;98.30
64843;DHT22;51310;52.198;5.422;2022-07-23T05:42:39;17.50;99.00
64843;DHT22;51310;52.198;5.422;2022-07-23T05:45:07;17.10;99.90
64843;DHT22;51310;52.198;5.422;2022-07-23T05:47:45;17.30;99.90
64843;DHT22;51310;52.198;5.422;2022-07-23T05:50:15;17.70;99.90
64843;DHT22;51310;52.198;5.422;2022-07-23T05:52:42;17.80;98.00
64843;DHT22;51310;52.198;5.422;2022-07-23T05:55:09;18.00;97.30
64843;DHT22;51310;52.198;5.422;2022-07-23T05:57:38;18.00;96.20
64843;DHT22;51310;52.198;5.422;2022-07-23T06:00:07;17.80;96.60
64843;DHT22;51310;52.198;5.422;2022-07-23T06:02:34;17.80;97.50
64843;DHT22;51310;52.198;5.422;2022-07-23T06:05:00;18.50;93.70
64843;DHT22;51310;52.198;5.422;2022-07-23T06:07:26;18.40;93.40
64843;DHT22;51310;52.198;5.422;2022-07-23T06:09:52;18.30;95.30
64843;DHT22;51310;52.198;5.422;2022-07-23T06:12:18;18.30;95.50
64843;DHT22;51310;52.198;5.422;2022-07-23T06:14:44;18.50;94.20
64843;DHT22;51310;52.198;5.422;2022-07-23T06:17:10;18.90;93.70
64843;DHT22;51310;52.198;5.422;2022-07-23T06:19:36;18.50;92.60
64843;DHT22;51310;52.198;5.422;2022-07-23T06:22:02;18.90;89.60
64843;DHT22;51310;52.198;5.422;2022-07-23T06:24:28;18.70;90.00
64843;DHT22;51310;52.198;5.422;2022-07-23T06:26:54;19.10;80.60
64843;DHT22;51310;52.198;5.422;2022-07-23T06:29:20;22.10;81.70
64843;DHT22;51310;52.198;5.422;2022-07-23T06:31:45;19.00;79.80
64843;DHT22;51310;52.198;5.422;2022-07-23T06:34:11;18.50;85.30
64843;DHT22;51310;52.198;5.422;2022-07-23T06:36:37;18.90;80.30
64843;DHT22;51310;52.198;5.422;2022-07-23T06:39:03;19.20;78.20
64843;DHT22;51310;52.198;5.422;2022-07-23T06:41:29;19.20;78.30
64843;DHT22;51310;52.198;5.422;2022-07-23T06:43:55;19.20;78.20
64843;DHT22;51310;52.198;5.422;2022-07-23T06:46:20;19.10;76.80
64843;DHT22;51310;52.198;5.422;2022-07-23T06:48:47;19.00;75.00
64843;DHT22;51310;52.198;5.422;2022-07-23T06:51:12;18.80;73.90
64843;DHT22;51310;52.198;5.422;2022-07-23T06:53:38;18.80;75.10
64843;DHT22;51310;52.198;5.422;2022-07-23T06:56:04;18.60;79.60
64843;DHT22;51310;52.198;5.422;2022-07-23T06:58:30;18.60;81.40
64843;DHT22;51310;52.198;5.422;2022-07-23T07:00:56;18.50;82.40
64843;DHT22;51310;52.198;5.422;2022-07-23T07:03:22;18.30;87.30
64843;DHT22;51310;52.198;5.422;2022-07-23T07:05:48;18.40;84.80
64843;DHT22;51310;52.198;5.422;2022-07-23T07:08:15;18.80;84.40
64843;DHT22;51310;52.198;5.422;2022-07-23T07:10:41;18.30;85.60
64843;DHT22;51310;52.198;5.422;2022-07-23T07:13:07;18.40;81.20
64843;DHT22;51310;52.198;5.422;2022-07-23T07:15:32;18.40;83.50
64843;DHT22;51310;52.198;5.422;2022-07-23T07:17:58;18.40;83.80
64843;DHT22;51310;52.198;5.422;2022-07-23T07:20:24;18.40;86.30
64843;DHT22;51310;52.198;5.422;2022-07-23T07:22:50;18.60;85.50
64843;DHT22;51310;52.198;5.422;2022-07-23T07:25:16;18.70;87.90
64843;DHT22;51310;52.198;5.422;2022-07-23T07:27:42;19.30;85.20
64843;DHT22;51310;52.198;5.422;2022-07-23T07:30:09;18.80;82.60
64843;DHT22;51310;52.198;5.422;2022-07-23T07:32:36;19.00;76.90
64843;DHT22;51310;52.198;5.422;2022-07-23T07:35:03;19.20;78.40
64843;DHT22;51310;52.198;5.422;2022-07-23T07:37:30;18.50;80.00
64843;DHT22;51310;52.198;5.422;2022-07-23T07:39:56;18.40;79.50
64843;DHT22;51310;52.198;5.422;2022-07-23T07:42:21;18.70;80.90
64843;DHT22;51310;52.198;5.422;2022-07-23T07:44:47;18.80;81.40
64843;DHT22;51310;52.198;5.422;2022-07-23T07:47:13;18.90;76.50
64843;DHT22;51310;52.198;5.422;2022-07-23T07:49:41;18.80;78.60
64843;DHT22;51310;52.198;5.422;2022-07-23T07:52:08;18.70;82.20
64843;DHT22;51310;52.198;5.422;2022-07-23T07:54:36;20.40;80.60
64843;DHT22;51310;52.198;5.422;2022-07-23T07:57:02;18.80;77.20
64843;DHT22;51310;52.198;5.422;2022-07-23T07:59:28;18.70;78.10
64843;DHT22;51310;52.198;5.422;2022-07-23T08:01:54;19.30;80.90
64843;DHT22;51310;52.198;5.422;2022-07-23T08:04:20;18.60;82.00
64843;DHT22;51310;52.198;5.422;2022-07-23T08:06:46;20.00;82.80
64843;DHT22;51310;52.198;5.422;2022-07-23T08:09:12;18.50;82.50
64843;DHT22;51310;52.198;5.422;2022-07-23T08:11:38;18.60;81.80
64843;DHT22;51310;52.198;5.422;2022-07-23T08:14:04;18.90;80.00
64843;DHT22;51310;52.198;5.422;2022-07-23T08:16:30;19.00;79.40
64843;DHT22;51310;52.198;5.422;2022-07-23T08:18:55;18.80;81.30
64843;DHT22;51310;52.198;5.422;2022-07-23T08:21:21;18.60;80.50
64843;DHT22;51310;52.198;5.422;2022-07-23T08:23:47;20.50;82.20
64843;DHT22;51310;52.198;5.422;2022-07-23T08:26:13;19.60;79.00
64843;DHT22;51310;52.198;5.422;2022-07-23T08:28:39;18.70;81.00
64843;DHT22;51310;52.198;5.422;2022-07-23T08:31:05;18.80;81.40
64843;DHT22;51310;52.198;5.422;2022-07-23T08:33:31;19.10;76.80
64843;DHT22;51310;52.198;5.422;2022-07-23T08:35:58;18.80;79.90
64843;DHT22;51310;52.198;5.422;2022-07-23T08:38:24;18.90;78.00
64843;DHT22;51310;52.198;5.422;2022-07-23T08:40:53;20.00;76.80
64843;DHT22;51310;52.198;5.422;2022-07-23T08:43:23;19.50;76.40
64843;DHT22;51310;52.198;5.422;2022-07-23T08:45:58;18.80;77.50
64843;DHT22;51310;52.198;5.422;2022-07-23T08:48:28;18.80;77.80
64843;DHT22;51310;52.198;5.422;2022-07-23T08:51:03;18.80;78.60
64843;DHT22;51310;52.198;5.422;2022-07-23T08:53:31;19.00;76.60
64843;DHT22;51310;52.198;5.422;2022-07-23T08:56:00;19.20;76.80
64843;DHT22;51310;52.198;5.422;2022-07-23T08:58:28;19.30;73.60
64843;DHT22;51310;52.198;5.422;2022-07-23T09:00:56;20.00;74.50
64843;DHT22;51310;52.198;5.422;2022-07-23T09:03:28;19.50;73.90
64843;DHT22;51310;52.198;5.422;2022-07-23T09:05:59;19.70;72.30
64843;DHT22;51310;52.198;5.422;2022-07-23T09:08:36;20.50;70.90
64843;DHT22;51310;52.198;5.422;2022-07-23T09:11:09;19.40;72.80
64843;DHT22;51310;52.198;5.422;2022-07-23T09:13:49;19.40;72.80
64843;DHT22;51310;52.198;5.422;2022-07-23T09:16:28;19.40;72.50
64843;DHT22;51310;52.198;5.422;2022-07-23T09:18:58;19.40;72.50
64843;DHT22;51310;52.198;5.422;2022-07-23T09:21:31;19.50;70.60
64843;DHT22;51310;52.198;5.422;2022-07-23T09:26:35;19.70;71.00
64843;DHT22;51310;52.198;5.422;2022-07-23T09:29:17;19.90;71.80
64843;DHT22;51310;52.198;5.422;2022-07-23T09:31:59;20.00;69.00
64843;DHT22;51310;52.198;5.422;2022-07-23T09:34:36;19.70;69.70
64843;DHT22;51310;52.198;5.422;2022-07-23T09:37:23;19.90;68.40
64843;DHT22;51310;52.198;5.422;2022-07-23T09:39:49;19.80;68.20
64843;DHT22;51310;52.198;5.422;2022-07-23T09:42:23;20.10;66.40
64843;DHT22;51310;52.198;5.422;2022-07-23T09:44:54;20.10;66.10
64843;DHT22;51310;52.198;5.422;2022-07-23T09:47:24;20.00;65.90
64843;DHT22;51310;52.198;5.422;2022-07-23T09:50:08;19.80;67.70
64843;DHT22;51310;52.198;5.422;2022-07-23T09:52:46;19.80;67.30
64843;DHT22;51310;52.198;5.422;2022-07-23T09:55:15;19.80;66.40
64843;DHT22;51310;52.198;5.422;2022-07-23T09:57:43;20.10;65.50
64843;DHT22;51310;52.198;5.422;2022-07-23T10:00:12;20.10;65.10
64843;DHT22;51310;52.198;5.422;2022-07-23T10:02:39;20.40;65.40
64843;DHT22;51310;52.198;5.422;2022-07-23T10:05:06;20.40;65.10
64843;DHT22;51310;52.198;5.422;2022-07-23T10:07:36;20.30;64.80
64843;DHT22;51310;52.198;5.422;2022-07-23T10:10:04;20.60;63.50
64843;DHT22;51310;52.198;5.422;2022-07-23T10:12:32;20.60;63.70
64843;DHT22;51310;52.198;5.422;2022-07-23T10:15:13;21.70;63.20
64843;DHT22;51310;52.198;5.422;2022-07-23T10:17:39;21.00;61.60
64843;DHT22;51310;52.198;5.422;2022-07-23T10:20:05;21.30;61.10
64843;DHT22;51310;52.198;5.422;2022-07-23T10:22:40;20.80;63.40
64843;DHT22;51310;52.198;5.422;2022-07-23T10:25:31;20.60;61.10
64843;DHT22;51310;52.198;5.422;2022-07-23T10:28:33;20.70;61.20
64843;DHT22;51310;52.198;5.422;2022-07-23T10:31:41;20.80;60.50
64843;DHT22;51310;52.198;5.422;2022-07-23T10:34:42;20.80;61.50
64843;DHT22;51310;52.198;5.422;2022-07-23T10:37:26;20.80;62.30
64843;DHT22;51310;52.198;5.422;2022-07-23T10:40:19;21.80;62.60
64843;DHT22;51310;52.198;5.422;2022-07-23T10:42:50;20.90;61.50
64843;DHT22;51310;52.198;5.422;2022-07-23T10:45:35;21.30;58.50
64843;DHT22;51310;52.198;5.422;2022-07-23T10:48:13;21.20;57.80
64843;DHT22;51310;52.198;5.422;2022-07-23T10:51:16;21.20;59.60
64843;DHT22;51310;52.198;5.422;2022-07-23T10:59:20;21.40;59.60
64843;DHT22;51310;52.198;5.422;2022-07-23T11:01:46;21.50;58.90
64843;DHT22;51310;52.198;5.422;2022-07-23T11:04:13;21.50;53.50
64843;DHT22;51310;52.198;5.422;2022-07-23T11:09:27;22.10;55.00
64843;DHT22;51310;52.198;5.422;2022-07-23T11:17:32;21.70;51.40
64843;DHT22;51310;52.198;5.422;2022-07-23T11:22:50;22.00;54.00
64843;DHT22;51310;52.198;5.422;2022-07-23T11:28:14;22.30;51.00
64843;DHT22;51310;52.198;5.422;2022-07-23T11:30:46;22.10;52.70
64843;DHT22;51310;52.198;5.422;2022-07-23T11:35:41;22.40;52.90
64843;DHT22;51310;52.198;5.422;2022-07-23T11:38:18;22.40;53.30
64843;DHT22;51310;52.198;5.422;2022-07-23T11:40:53;22.50;53.70
64843;DHT22;51310;52.198;5.422;2022-07-23T11:43:23;22.60;51.90
64843;DHT22;51310;52.198;5.422;2022-07-23T11:45:52;22.60;52.70
64843;DHT22;51310;52.198;5.422;2022-07-23T11:48:29;22.50;51.50
64843;DHT22;51310;52.198;5.422;2022-07-23T11:50:57;22.50;50.20
64843;DHT22;51310;52.198;5.422;2022-07-23T11:53:24;22.40;51.80
64843;DHT22;51310;52.198;5.422;2022-07-23T11:56:06;22.20;52.80
64843;DHT22;51310;52.198;5.422;2022-07-23T11:58:36;22.20;54.20
64843;DHT22;51310;52.198;5.422;2022-07-23T12:01:04;22.50;51.10
64843;DHT22;51310;52.198;5.422;2022-07-23T12:03:30;22.50;49.60
64843;DHT22;51310;52.198;5.422;2022-07-23T12:05:58;22.80;51.00
64843;DHT22;51310;52.198;5.422;2022-07-23T12:08:25;23.00;52.00
64843;DHT22;51310;52.198;5.422;2022-07-23T12:10:51;22.60;53.00
64843;DHT22;51310;52.198;5.422;2022-07-23T12:13:19;22.50;52.80
64843;DHT22;51310;52.198;5.422;2022-07-23T12:15:52;22.10;52.00
64843;DHT22;51310;52.198;5.422;2022-07-23T12:18:24;21.70;53.60
64843;DHT22;51310;52.198;5.422;2022-07-23T12:20:54;22.10;55.70
64843;DHT22;51310;52.198;5.422;2022-07-23T12:23:25;22.20;52.90
64843;DHT22;51310;52.198;5.422;2022-07-23T12:25:52;22.20;52.90
64843;DHT22;51310;52.198;5.422;2022-07-23T12:28:27;22.20;54.00
64843;DHT22;51310;52.198;5.422;2022-07-23T12:30:58;22.50;52.80
64843;DHT22;51310;52.198;5.422;2022-07-23T12:33:27;22.70;53.70
64843;DHT22;51310;52.198;5.422;2022-07-23T12:36:05;22.70;52.70
64843;DHT22;51310;52.198;5.422;2022-07-23T12:38:43;22.60;52.20
64843;DHT22;51310;52.198;5.422;2022-07-23T12:41:14;22.40;53.90
64843;DHT22;51310;52.198;5.422;2022-07-23T12:43:42;22.30;51.80
64843;DHT22;51310;52.198;5.422;2022-07-23T12:46:17;22.50;54.20
64843;DHT22;51310;52.198;5.422;2022-07-23T12:51:26;22.70;53.30
64843;DHT22;51310;52.198;5.422;2022-07-23T12:54:09;23.10;51.20
64843;DHT22;51310;52.198;5.422;2022-07-23T12:56:37;23.30;51.60
64843;DHT22;51310;52.198;5.422;2022-07-23T12:59:08;23.10;51.30
64843;DHT22;51310;52.198;5.422;2022-07-23T13:01:38;23.30;52.00
64843;DHT22;51310;52.198;5.422;2022-07-23T13:04:14;23.10;50.20
64843;DHT22;51310;52.198;5.422;2022-07-23T13:06:46;22.80;49.30
64843;DHT22;51310;52.198;5.422;2022-07-23T13:09:22;22.70;52.00
64843;DHT22;51310;52.198;5.422;2022-07-23T13:11:52;22.90;52.50
64843;DHT22;51310;52.198;5.422;2022-07-23T13:14:20;23.20;49.70
64843;DHT22;51310;52.198;5.422;2022-07-23T13:16:48;23.90;50.30
64843;DHT22;51310;52.198;5.422;2022-07-23T13:19:16;23.40;49.60
64843;DHT22;51310;52.198;5.422;2022-07-23T13:21:42;23.40;50.50
64843;DHT22;51310;52.198;5.422;2022-07-23T13:24:10;23.60;50.10
64843;DHT22;51310;52.198;5.422;2022-07-23T13:26:37;25.80;47.90
64843;DHT22;51310;52.198;5.422;2022-07-23T13:29:05;23.50;48.90
64843;DHT22;51310;52.198;5.422;2022-07-23T13:31:32;23.40;49.90
64843;DHT22;51310;52.198;5.422;2022-07-23T13:33:58;23.40;49.40
64843;DHT22;51310;52.198;5.422;2022-07-23T13:36:24;23.40;47.20
64843;DHT22;51310;52.198;5.422;2022-07-23T13:38:50;23.30;48.10
64843;DHT22;51310;52.198;5.422;2022-07-23T13:41:19;23.50;47.70
64843;DHT22;51310;52.198;5.422;2022-07-23T13:43:45;23.50;47.20
64843;DHT22;51310;52.198;5.422;2022-07-23T13:46:11;23.60;49.40
64843;DHT22;51310;52.198;5.422;2022-07-23T13:48:37;23.90;48.60
64843;DHT22;51310;52.198;5.422;2022-07-23T13:51:03;25.40;49.30
64843;DHT22;51310;52.198;5.422;2022-07-23T13:53:29;24.10;46.60
64843;DHT22;51310;52.198;5.422;2022-07-23T13:55:55;23.70;47.20
64843;DHT22;51310;52.198;5.422;2022-07-23T13:58:22;23.40;47.70
64843;DHT22;51310;52.198;5.422;2022-07-23T14:00:51;23.10;48.20
64843;DHT22;51310;52.198;5.422;2022-07-23T14:03:20;23.00;49.40
64843;DHT22;51310;52.198;5.422;2022-07-23T14:05:51;24.30;49.60
64843;DHT22;51310;52.198;5.422;2022-07-23T14:08:18;23.50;48.80
64843;DHT22;51310;52.198;5.422;2022-07-23T14:10:45;23.30;48.00
64843;DHT22;51310;52.198;5.422;2022-07-23T14:13:10;23.30;47.10
64843;DHT22;51310;52.198;5.422;2022-07-23T14:15:36;23.20;48.00
64843;DHT22;51310;52.198;5.422;2022-07-23T14:18:05;23.40;48.10
64843;DHT22;51310;52.198;5.422;2022-07-23T14:20:32;23.60;47.90
64843;DHT22;51310;52.198;5.422;2022-07-23T14:22:58;23.70;45.70
64843;DHT22;51310;52.198;5.422;2022-07-23T14:25:26;23.70;45.80
64843;DHT22;51310;52.198;5.422;2022-07-23T14:27:51;23.70;46.40
64843;DHT22;51310;52.198;5.422;2022-07-23T14:30:18;23.80;46.90
64843;DHT22;51310;52.198;5.422;2022-07-23T14:32:44;23.80;47.60
64843;DHT22;51310;52.198;5.422;2022-07-23T14:35:10;24.00;47.00
64843;DHT22;51310;52.198;5.422;2022-07-23T14:37:36;23.90;45.90
64843;DHT22;51310;52.198;5.422;2022-07-23T14:40:04;23.80;46.60
64843;DHT22;51310;52.198;5.422;2022-07-23T14:42:31;23.60;45.60
64843;DHT22;51310;52.198;5.422;2022-07-23T14:44:57;24.70;47.00
64843;DHT22;51310;52.198;5.422;2022-07-23T14:47:23;23.50;46.40
64843;DHT22;51310;52.198;5.422;2022-07-23T14:49:49;23.70;46.00
64843;DHT22;51310;52.198;5.422;2022-07-23T14:52:15;23.70;45.00
64843;DHT22;51310;52.198;5.422;2022-07-23T14:54:41;24.00;45.00
64843;DHT22;51310;52.198;5.422;2022-07-23T14:57:07;24.40;44.20
64843;DHT22;51310;52.198;5.422;2022-07-23T14:59:34;24.50;44.30
64843;DHT22;51310;52.198;5.422;2022-07-23T15:02:00;24.60;42.80
64843;DHT22;51310;52.198;5.422;2022-07-23T15:04:26;26.30;44.50
64843;DHT22;51310;52.198;5.422;2022-07-23T15:06:52;23.40;43.60
64843;DHT22;51310;52.198;5.422;2022-07-23T15:09:18;24.50;44.60
64843;DHT22;51310;52.198;5.422;2022-07-23T15:11:44;24.50;44.60
64843;DHT22;51310;52.198;5.422;2022-07-23T15:14:10;24.30;45.20
64843;DHT22;51310;52.198;5.422;2022-07-23T15:16:36;24.40;44.30
64843;DHT22;51310;52.198;5.422;2022-07-23T15:19:03;24.00;44.60
64843;DHT22;51310;52.198;5.422;2022-07-23T15:21:30;24.20;44.50
64843;DHT22;51310;52.198;5.422;2022-07-23T15:23:57;24.30;44.00
64843;DHT22;51310;52.198;5.422;2022-07-23T15:26:27;24.60;42.60
64843;DHT22;51310;52.198;5.422;2022-07-23T15:28:55;24.70;43.10
64843;DHT22;51310;52.198;5.422;2022-07-23T15:31:21;24.50;42.80
64843;DHT22;51310;52.198;5.422;2022-07-23T15:33:48;24.20;43.30
64843;DHT22;51310;52.198;5.422;2022-07-23T15:36:14;23.80;44.60
64843;DHT22;51310;52.198;5.422;2022-07-23T15:38:44;24.00;45.00
64843;DHT22;51310;52.198;5.422;2022-07-23T15:41:11;24.40;45.00
64843;DHT22;51310;52.198;5.422;2022-07-23T15:43:37;24.30;43.90
64843;DHT22;51310;52.198;5.422;2022-07-23T15:46:04;24.20;43.30
64843;DHT22;51310;52.198;5.422;2022-07-23T15:48:35;24.20;43.00
64843;DHT22;51310;52.198;5.422;2022-07-23T15:51:02;24.30;42.30
64843;DHT22;51310;52.198;5.422;2022-07-23T15:53:28;24.70;42.70
64843;DHT22;51310;52.198;5.422;2022-07-23T15:55:54;25.20;40.60
64843;DHT22;51310;52.198;5.422;2022-07-23T15:58:21;25.10;41.70
64843;DHT22;51310;52.198;5.422;2022-07-23T16:00:46;25.30;43.70
64843;DHT22;51310;52.198;5.422;2022-07-23T16:03:14;24.70;43.50